sensor_id;sensor_type;location;lat;lon;timestamp;P1;durP1;ratioP1;P2;durP2;ratioP2
15169;SDS011;7685;47.406;8.540;2023-06-10T15:23:43;0.82;;;0.82;;
15169;SDS011;7685;47.406;8.540;2023-06-10T15:26:54;1.40;;;1.30;;
15169;SDS011;7685;47.406;8.540;2023-06-10T15:29:36;1.17;;;1.17;;
15169;SDS011;7685;47.406;8.540;2023-06-10T15:36:02;1.55;;;1.38;;
15169;SDS011;7685;47.406;8.540;2023-06-10T15:38:45;2.38;;;1.55;;
15169;SDS011;7685;47.406;8.540;2023-06-10T15:41:25;1.55;;;1.45;;
15169;SDS011;7685;47.406;8.540;2023-06-10T15:43:52;1.25;;;1.15;;
15169;SDS011;7685;47.406;8.540;2023-06-10T15:46:22;2.17;;;2.03;;
15169;SDS011;7685;47.406;8.540;2023-06-10T15:49:25;1.80;;;1.70;;
15169;SDS011;7685;47.406;8.540;2023-06-10T15:51:52;1.25;;;1.25;;
15169;SDS011;7685;47.406;8.540;2023-06-10T15:54:19;3.88;;;3.55;;
15169;SDS011;7685;47.406;8.540;2023-06-10T15:56:46;4.30;;;3.67;;
15169;SDS011;7685;47.406;8.540;2023-06-10T15:59:13;3.40;;;3.13;;
15169;SDS011;7685;47.406;8.540;2023-06-10T16:02:12;2.45;;;2.28;;
15169;SDS011;7685;47.406;8.540;2023-06-10T16:04:39;1.67;;;1.58;;
15169;SDS011;7685;47.406;8.540;2023-06-10T16:07:06;1.92;;;1.83;;
15169;SDS011;7685;47.406;8.540;2023-06-10T16:09:32;2.67;;;2.47;;
15169;SDS011;7685;47.406;8.540;2023-06-10T16:12:02;1.92;;;1.83;;
15169;SDS011;7685;47.406;8.540;2023-06-10T16:14:32;2.03;;;1.85;;
15169;SDS011;7685;47.406;8.540;2023-06-10T16:16:58;1.83;;;1.73;;
15169;SDS011;7685;47.406;8.540;2023-06-10T16:19:25;2.25;;;2.05;;
15169;SDS011;7685;47.406;8.540;2023-06-10T16:21:52;1.45;;;1.45;;
15169;SDS011;7685;47.406;8.540;2023-06-10T16:24:19;1.10;;;1.10;;
15169;SDS011;7685;47.406;8.540;2023-06-10T16:26:45;1.02;;;1.02;;
15169;SDS011;7685;47.406;8.540;2023-06-10T16:29:15;1.63;;;1.52;;
15169;SDS011;7685;47.406;8.540;2023-06-10T16:31:42;1.65;;;1.55;;
15169;SDS011;7685;47.406;8.540;2023-06-10T16:34:09;1.55;;;1.45;;
15169;SDS011;7685;47.406;8.540;2023-06-10T16:37:02;1.75;;;1.65;;
15169;SDS011;7685;47.406;8.540;2023-06-10T16:46:02;1.33;;;1.23;;
15169;SDS011;7685;47.406;8.540;2023-06-10T16:51:19;5.30;;;1.77;;
15169;SDS011;7685;47.406;8.540;2023-06-10T16:53:58;1.10;;;1.05;;
15169;SDS011;7685;47.406;8.540;2023-06-10T16:57:23;1.50;;;1.40;;
15169;SDS011;7685;47.406;8.540;2023-06-10T17:13:43;1.17;;;1.17;;
15169;SDS011;7685;47.406;8.540;2023-06-10T17:16:48;1.10;;;1.02;;
15169;SDS011;7685;47.406;8.540;2023-06-10T18:07:27;1.05;;;0.95;;
15169;SDS011;7685;47.406;8.540;2023-06-10T18:12:52;1.02;;;1.02;;
15169;SDS011;7685;47.406;8.540;2023-06-10T18:15:46;0.80;;;0.80;;
15169;SDS011;7685;47.406;8.540;2023-06-10T18:18:18;0.90;;;0.90;;
15169;SDS011;7685;47.406;8.540;2023-06-10T18:23:42;1.08;;;1.02;;
15169;SDS011;7685;47.406;8.540;2023-06-10T18:27:20;1.10;;;1.00;;
15169;SDS011;7685;47.406;8.540;2023-06-10T18:46:22;1.10;;;1.10;;
15169;SDS011;7685;47.406;8.540;2023-06-10T18:48:49;1.10;;;1.05;;
15169;SDS011;7685;47.406;8.540;2023-06-10T18:51:16;0.70;;;0.70;;
15169;SDS011;7685;47.406;8.540;2023-06-10T18:53:43;0.90;;;0.90;;
15169;SDS011;7685;47.406;8.540;2023-06-10T18:56:10;0.35;;;0.35;;
15169;SDS011;7685;47.406;8.540;2023-06-10T18:58:39;1.00;;;1.00;;
15169;SDS011;7685;47.406;8.540;2023-06-10T19:01:06;1.05;;;0.95;;
15169;SDS011;7685;47.406;8.540;2023-06-10T19:03:32;1.95;;;1.85;;
15169;SDS011;7685;47.406;8.540;2023-06-10T19:05:59;3.30;;;3.05;;
15169;SDS011;7685;47.406;8.540;2023-06-10T19:08:29;4.93;;;4.50;;
15169;SDS011;7685;47.406;8.540;2023-06-10T19:10:57;6.65;;;5.78;;
15169;SDS011;7685;47.406;8.540;2023-06-10T19:13:24;9.30;;;8.50;;
15169;SDS011;7685;47.406;8.540;2023-06-10T19:15:51;14.65;;;13.05;;
15169;SDS011;7685;47.406;8.540;2023-06-10T19:18:18;8.85;;;8.05;;
15169;SDS011;7685;47.406;8.540;2023-06-10T19:20:44;7.60;;;6.90;;
15169;SDS011;7685;47.406;8.540;2023-06-10T19:23:11;5.75;;;4.97;;
15169;SDS011;7685;47.406;8.540;2023-06-10T19:25:38;4.88;;;4.53;;
15169;SDS011;7685;47.406;8.540;2023-06-10T19:28:06;2.95;;;2.50;;
15169;SDS011;7685;47.406;8.540;2023-06-10T19:30:35;2.15;;;1.95;;
15169;SDS011;7685;47.406;8.540;2023-06-10T19:33:02;1.63;;;1.52;;
15169;SDS011;7685;47.406;8.540;2023-06-10T19:35:29;0.70;;;0.70;;
15169;SDS011;7685;47.406;8.540;2023-06-10T19:37:55;2.80;;;1.98;;
15169;SDS011;7685;47.406;8.540;2023-06-10T19:40:22;1.10;;;1.10;;
15169;SDS011;7685;47.406;8.540;2023-06-10T19:46:31;2.40;;;1.98;;
15169;SDS011;7685;47.406;8.540;2023-06-10T19:53:35;1.92;;;1.60;;
15169;SDS011;7685;47.406;8.540;2023-06-10T19:56:04;1.05;;;1.05;;
15169;SDS011;7685;47.406;8.540;2023-06-10T19:58:33;1.20;;;1.20;;
15169;SDS011;7685;47.406;8.540;2023-06-10T20:01:00;1.45;;;1.35;;
15169;SDS011;7685;47.406;8.540;2023-06-10T20:03:27;1.55;;;1.38;;
15169;SDS011;7685;47.406;8.540;2023-06-10T20:05:53;1.17;;;1.08;;
15169;SDS011;7685;47.406;8.540;2023-06-10T20:08:20;0.63;;;0.63;;
15169;SDS011;7685;47.406;8.540;2023-06-10T20:10:47;0.82;;;0.77;;
15169;SDS011;7685;47.406;8.540;2023-06-10T20:13:14;0.93;;;0.93;;
15169;SDS011;7685;47.406;8.540;2023-06-10T20:15:41;1.00;;;1.00;;
15169;SDS011;7685;47.406;8.540;2023-06-10T20:18:08;1.35;;;1.27;;
15169;SDS011;7685;47.406;8.540;2023-06-10T20:20:34;1.63;;;1.38;;
15169;SDS011;7685;47.406;8.540;2023-06-10T20:23:01;1.27;;;1.20;;
15169;SDS011;7685;47.406;8.540;2023-06-10T20:25:28;0.77;;;0.77;;
15169;SDS011;7685;47.406;8.540;2023-06-10T20:27:56;1.30;;;0.90;;
15169;SDS011;7685;47.406;8.540;2023-06-10T20:30:23;0.93;;;0.93;;
15169;SDS011;7685;47.406;8.540;2023-06-10T20:32:50;0.77;;;0.77;;
15169;SDS011;7685;47.406;8.540;2023-06-10T20:35:16;0.88;;;0.88;;
15169;SDS011;7685;47.406;8.540;2023-06-10T20:37:43;0.80;;;0.80;;
15169;SDS011;7685;47.406;8.540;2023-06-10T20:40:11;1.13;;;0.85;;
15169;SDS011;7685;47.406;8.540;2023-06-10T20:42:39;0.63;;;0.63;;
15169;SDS011;7685;47.406;8.540;2023-06-10T20:45:06;1.00;;;1.00;;
15169;SDS011;7685;47.406;8.540;2023-06-10T20:47:34;0.95;;;0.95;;
15169;SDS011;7685;47.406;8.540;2023-06-10T20:50:01;0.85;;;0.85;;
15169;SDS011;7685;47.406;8.540;2023-06-10T20:52:28;0.93;;;0.80;;
15169;SDS011;7685;47.406;8.540;2023-06-10T20:54:55;0.80;;;0.80;;
15169;SDS011;7685;47.406;8.540;2023-06-10T20:57:22;0.98;;;0.98;;
15169;SDS011;7685;47.406;8.540;2023-06-10T20:59:50;1.05;;;1.00;;
15169;SDS011;7685;47.406;8.540;2023-06-10T21:02:16;1.15;;;1.13;;
15169;SDS011;7685;47.406;8.540;2023-06-10T21:04:43;0.57;;;0.57;;
15169;SDS011;7685;47.406;8.540;2023-06-10T21:07:10;0.77;;;0.77;;
15169;SDS011;7685;47.406;8.540;2023-06-10T21:09:37;0.70;;;0.70;;
15169;SDS011;7685;47.406;8.540;2023-06-10T21:12:04;0.65;;;0.65;;
15169;SDS011;7685;47.406;8.540;2023-06-10T21:14:32;1.10;;;1.10;;
15169;SDS011;7685;47.406;8.540;2023-06-10T21:16:59;0.93;;;0.93;;
15169;SDS011;7685;47.406;8.540;2023-06-10T21:19:26;1.10;;;1.10;;
15169;SDS011;7685;47.406;8.540;2023-06-10T21:21:53;1.48;;;1.38;;
15169;SDS011;7685;47.406;8.540;2023-06-10T21:24:20;0.65;;;0.65;;
15169;SDS011;7685;47.406;8.540;2023-06-10T21:26:47;0.85;;;0.82;;
15169;SDS011;7685;47.406;8.540;2023-06-10T21:29:14;1.00;;;1.00;;
15169;SDS011;7685;47.406;8.540;2023-06-10T21:31:40;0.60;;;0.60;;
15169;SDS011;7685;47.406;8.540;2023-06-10T21:34:11;1.00;;;1.00;;
15169;SDS011;7685;47.406;8.540;2023-06-10T21:36:38;0.60;;;0.60;;
15169;SDS011;7685;47.406;8.540;2023-06-10T21:39:04;0.68;;;0.68;;
15169;SDS011;7685;47.406;8.540;2023-06-10T21:41:32;1.05;;;1.05;;
15169;SDS011;7685;47.406;8.540;2023-06-10T21:43:59;2.28;;;0.73;;
15169;SDS011;7685;47.406;8.540;2023-06-10T21:46:25;0.50;;;0.50;;
15169;SDS011;7685;47.406;8.540;2023-06-10T21:48:52;0.82;;;0.75;;
15169;SDS011;7685;47.406;8.540;2023-06-10T21:51:19;0.43;;;0.43;;
15169;SDS011;7685;47.406;8.540;2023-06-10T21:53:46;0.63;;;0.63;;
15169;SDS011;7685;47.406;8.540;2023-06-10T21:56:12;1.75;;;1.65;;
15169;SDS011;7685;47.406;8.540;2023-06-10T21:58:40;1.10;;;1.10;;
15169;SDS011;7685;47.406;8.540;2023-06-10T22:01:14;1.05;;;1.05;;
15169;SDS011;7685;47.406;8.540;2023-06-10T22:03:41;0.63;;;0.63;;
15169;SDS011;7685;47.406;8.540;2023-06-10T22:06:08;0.68;;;0.68;;
15169;SDS011;7685;47.406;8.540;2023-06-10T22:08:35;0.70;;;0.70;;
15169;SDS011;7685;47.406;8.540;2023-06-10T22:11:02;0.85;;;0.60;;
15169;SDS011;7685;47.406;8.540;2023-06-10T22:13:28;0.63;;;0.63;;
15169;SDS011;7685;47.406;8.540;2023-06-10T22:15:55;1.00;;;1.00;;
15169;SDS011;7685;47.406;8.540;2023-06-10T22:18:22;0.52;;;0.52;;
15169;SDS011;7685;47.406;8.540;2023-06-10T22:20:49;0.80;;;0.80;;
15169;SDS011;7685;47.406;8.540;2023-06-10T22:23:21;0.65;;;0.65;;
15169;SDS011;7685;47.406;8.540;2023-06-10T22:25:48;0.95;;;0.95;;
15169;SDS011;7685;47.406;8.540;2023-06-10T22:28:15;1.65;;;0.88;;
15169;SDS011;7685;47.406;8.540;2023-06-10T22:30:42;0.73;;;0.73;;
15169;SDS011;7685;47.406;8.540;2023-06-10T22:33:08;0.75;;;0.75;;
15169;SDS011;7685;47.406;8.540;2023-06-10T22:35:35;0.88;;;0.85;;
15169;SDS011;7685;47.406;8.540;2023-06-10T22:38:02;0.90;;;0.90;;
15169;SDS011;7685;47.406;8.540;2023-06-10T22:40:30;1.08;;;0.98;;
15169;SDS011;7685;47.406;8.540;2023-06-10T22:42:57;1.20;;;1.10;;
15169;SDS011;7685;47.406;8.540;2023-06-10T22:45:28;0.90;;;0.90;;
15169;SDS011;7685;47.406;8.540;2023-06-10T22:47:55;0.80;;;0.80;;
15169;SDS011;7685;47.406;8.540;2023-06-10T22:50:23;0.77;;;0.77;;
15169;SDS011;7685;47.406;8.540;2023-06-10T22:52:50;1.77;;;0.88;;
15169;SDS011;7685;47.406;8.540;2023-06-10T22:55:18;0.70;;;0.70;;
15169;SDS011;7685;47.406;8.540;2023-06-10T22:57:45;1.17;;;0.90;;
15169;SDS011;7685;47.406;8.540;2023-06-10T23:00:13;0.98;;;0.98;;
15169;SDS011;7685;47.406;8.540;2023-06-10T23:02:40;0.80;;;0.80;;
15169;SDS011;7685;47.406;8.540;2023-06-10T23:05:07;0.85;;;0.85;;
15169;SDS011;7685;47.406;8.540;2023-06-10T23:07:34;0.75;;;0.75;;
15169;SDS011;7685;47.406;8.540;2023-06-10T23:10:01;0.88;;;0.88;;
15169;SDS011;7685;47.406;8.540;2023-06-10T23:12:27;0.75;;;0.75;;
15169;SDS011;7685;47.406;8.540;2023-06-10T23:14:54;0.60;;;0.60;;
15169;SDS011;7685;47.406;8.540;2023-06-10T23:17:21;0.60;;;0.60;;
15169;SDS011;7685;47.406;8.540;2023-06-10T23:19:47;2.05;;;0.80;;
15169;SDS011;7685;47.406;8.540;2023-06-10T23:22:14;1.13;;;1.13;;
15169;SDS011;7685;47.406;8.540;2023-06-10T23:24:44;0.47;;;0.47;;
15169;SDS011;7685;47.406;8.540;2023-06-10T23:27:11;6.53;;;1.65;;
15169;SDS011;7685;47.406;8.540;2023-06-10T23:29:39;0.50;;;0.50;;
15169;SDS011;7685;47.406;8.540;2023-06-10T23:32:25;0.73;;;0.73;;
15169;SDS011;7685;47.406;8.540;2023-06-10T23:34:52;0.65;;;0.65;;
15169;SDS011;7685;47.406;8.540;2023-06-10T23:37:18;0.90;;;0.90;;
15169;SDS011;7685;47.406;8.540;2023-06-10T23:39:46;0.70;;;0.70;;
15169;SDS011;7685;47.406;8.540;2023-06-10T23:42:14;1.00;;;1.00;;
15169;SDS011;7685;47.406;8.540;2023-06-10T23:44:42;0.52;;;0.52;;
15169;SDS011;7685;47.406;8.540;2023-06-10T23:47:09;3.60;;;1.38;;
15169;SDS011;7685;47.406;8.540;2023-06-10T23:49:36;0.95;;;0.95;;
15169;SDS011;7685;47.406;8.540;2023-06-10T23:52:03;0.80;;;0.80;;
15169;SDS011;7685;47.406;8.540;2023-06-10T23:54:29;1.70;;;1.40;;
15169;SDS011;7685;47.406;8.540;2023-06-10T23:56:56;0.60;;;0.60;;
15169;SDS011;7685;47.406;8.540;2023-06-10T23:59:24;0.77;;;0.77;;
